Time;durP1;ratioP1;P1;durP2;ratioP2;P2;SDS_P1;SDS_P2;PMS_P1;PMS_P2;Temp;Humidity;BMP_temperature;BMP_pressure;BME280_temperature;BME280_humidity;BME280_pressure;Samples;Min_cycle;Max_cycle;Signal;HPM_P1;HPM_P2
2023/10/06 00:02:30;;;;;;;8.68;3.88;;;;;;;;;;6255398;22;20027;-87
2023/10/06 00:05:11;;;;;;;14.57;4.47;;;;;;;;;;6253998;22;20012;-87
2023/10/06 00:07:43;;;;;;;10.30;4.25;;;;;;;;;;6254789;22;20050;-87
2023/10/06 00:10:22;;;;;;;11.85;4.35;;;;;;;;;;6255878;22;20022;-87
2023/10/06 00:12:58;;;;;;;9.15;3.83;;;;;;;;;;6253985;22;20060;-87
2023/10/06 00:15:40;;;;;;;9.40;3.88;;;;;;;;;;6254783;22;20015;-87
2023/10/06 00:18:16;;;;;;;7.43;3.70;;;;;;;;;;6280849;22;20051;-87
2023/10/06 00:20:56;;;;;;;10.15;4.10;;;;;;;;;;6253885;22;20039;-87
2023/10/06 00:23:24;;;;;;;9.68;4.10;;;;;;;;;;6255535;22;20054;-87
2023/10/06 00:26:00;;;;;;;10.10;4.07;;;;;;;;;;6255001;22;20064;-87
2023/10/06 00:28:44;;;;;;;8.10;4.22;;;;;;;;;;6258613;22;20019;-87
2023/10/06 00:31:16;;;;;;;9.73;4.55;;;;;;;;;;6256456;22;20023;-87
2023/10/06 00:33:44;;;;;;;17.13;5.03;;;;;;;;;;6255361;22;20022;-87
2023/10/06 00:36:29;;;;;;;12.82;4.35;;;;;;;;;;6255084;22;20104;-87
2023/10/06 00:38:56;;;;;;;16.38;4.88;;;;;;;;;;6256364;22;20011;-87
2023/10/06 00:41:22;;;;;;;11.85;4.75;;;;;;;;;;6256491;22;20034;-86
2023/10/06 00:44:05;;;;;;;13.43;5.00;;;;;;;;;;6258331;22;20049;-87
2023/10/06 00:46:34;;;;;;;11.73;4.93;;;;;;;;;;6256906;22;20016;-87
2023/10/06 00:49:04;;;;;;;10.25;4.75;;;;;;;;;;6256186;22;20072;-87
2023/10/06 00:51:42;;;;;;;13.35;4.78;;;;;;;;;;6284599;22;20096;-87
2023/10/06 00:54:22;;;;;;;;;;;;;;;;;;;;;
2023/10/06 00:57:18;;;;;;;12.73;4.93;;;;;;;;;;6279637;22;20064;-87
2023/10/06 00:59:48;;;;;;;12.60;5.40;;;;;;;;;;6256066;22;20051;-87
2023/10/06 01:02:25;;;;;;;9.32;4.32;;;;;;;;;;6255787;22;20058;-87
2023/10/06 01:04:52;;;;;;;11.80;4.65;;;;;;;;;;6256061;22;20114;-86
2023/10/06 01:07:33;;;;;;;12.05;4.88;;;;;;;;;;6256505;22;20011;-87
2023/10/06 01:10:14;;;;;;;;;;;;;;;;;;6256804;22;20019;-87
2023/10/06 01:12:53;;;;;;;10.43;4.90;;;;;;;;;;6256851;22;19914;-87
2023/10/06 01:15:28;;;;;;;11.23;4.85;;;;;;;;;;6256329;22;20012;-87
2023/10/06 01:17:57;;;;;;;12.25;4.60;;;;;;;;;;6256355;22;20018;-85
2023/10/06 01:20:34;;;;;;;12.23;6.10;;;;;;;;;;6255182;22;20018;-87
2023/10/06 01:23:00;;;;;;;10.05;4.90;;;;;;;;;;6256645;22;20034;-87
2023/10/06 01:25:27;;;;;;;13.52;5.45;;;;;;;;;;6281374;22;20394;-86
2023/10/06 01:27:56;;;;;;;9.40;4.53;;;;;;;;;;6256676;22;20390;-86
2023/10/06 01:30:22;;;;;;;11.90;5.45;;;;;;;;;;6255951;22;20019;-88
2023/10/06 01:32:50;;;;;;;12.52;5.03;;;;;;;;;;6255301;22;20011;-87
2023/10/06 01:35:26;;;;;;;12.35;4.93;;;;;;;;;;6255543;22;20436;-87
2023/10/06 01:37:59;;;;;;;12.07;4.88;;;;;;;;;;6255329;22;20332;-86
2023/10/06 01:43:14;;;;;;;14.50;5.65;;;;;;;;;;6281534;22;20111;-87
2023/10/06 01:45:44;;;;;;;12.38;4.90;;;;;;;;;;6255035;22;20317;-87
2023/10/06 01:51:15;;;;;;;12.50;5.22;;;;;;;;;;6280934;22;20030;-87
2023/10/06 01:53:57;;;;;;;12.20;4.47;;;;;;;;;;6257437;22;20023;-87
2023/10/06 01:56:34;;;;;;;11.25;4.35;;;;;;;;;;6255500;22;20094;-87
2023/10/06 01:59:07;;;;;;;10.75;5.20;;;;;;;;;;6255297;22;20446;-87
2023/10/06 02:01:39;;;;;;;9.35;4.55;;;;;;;;;;6256445;22;20316;-87
2023/10/06 02:04:15;;;;;;;11.02;4.65;;;;;;;;;;6255740;22;20075;-87
2023/10/06 02:06:41;;;;;;;12.55;5.40;;;;;;;;;;6255307;22;20023;-87
2023/10/06 02:09:20;;;;;;;9.57;4.72;;;;;;;;;;6281083;22;20019;-87
2023/10/06 02:11:49;;;;;;;10.13;4.70;;;;;;;;;;6255587;22;20019;-87
2023/10/06 02:14:21;;;;;;;11.65;4.43;;;;;;;;;;6256728;22;20446;-87
2023/10/06 02:16:49;;;;;;;8.73;4.65;;;;;;;;;;6258598;22;20106;-87
2023/10/06 02:19:28;;;;;;;12.15;4.15;;;;;;;;;;6255762;22;20015;-87
2023/10/06 02:22:06;;;;;;;12.95;4.38;;;;;;;;;;6255469;22;20012;-87
2023/10/06 02:24:45;;;;;;;9.98;3.90;;;;;;;;;;6254999;22;20050;-87
2023/10/06 02:27:17;;;;;;;14.25;4.32;;;;;;;;;;6256270;22;20446;-87
2023/10/06 02:29:49;;;;;;;12.98;4.32;;;;;;;;;;6256755;22;20026;-87
2023/10/06 02:32:25;;;;;;;11.70;3.90;;;;;;;;;;6256802;22;20060;-87
2023/10/06 02:34:59;;;;;;;9.80;3.90;;;;;;;;;;6256687;22;20019;-87
2023/10/06 02:37:29;;;;;;;10.32;3.55;;;;;;;;;;6254984;22;20398;-87
2023/10/06 02:39:57;;;;;;;10.02;3.55;;;;;;;;;;6254476;22;20402;-87
2023/10/06 02:42:33;;;;;;;10.98;4.18;;;;;;;;;;6280516;22;20020;-88
2023/10/06 02:45:06;;;;;;;12.02;4.32;;;;;;;;;;6255342;22;20427;-87
2023/10/06 02:47:32;;;;;;;16.30;4.40;;;;;;;;;;6254004;22;20344;-87
2023/10/06 02:50:07;;;;;;;8.57;3.30;;;;;;;;;;6254494;22;20046;-87
2023/10/06 02:52:37;;;;;;;11.38;4.10;;;;;;;;;;6254804;22;20049;-87
2023/10/06 02:57:50;;;;;;;10.70;3.97;;;;;;;;;;6280857;22;20023;-87
2023/10/06 03:00:38;;;;;;;11.75;4.43;;;;;;;;;;6254759;22;20074;-86
2023/10/06 03:03:12;;;;;;;11.82;4.10;;;;;;;;;;6279307;22;20023;-87
2023/10/06 03:05:49;;;;;;;11.10;4.03;;;;;;;;;;6255739;22;20019;-87
2023/10/06 03:08:18;;;;;;;10.90;3.80;;;;;;;;;;6255706;22;20015;-87
2023/10/06 03:10:55;;;;;;;10.65;4.63;;;;;;;;;;6255583;22;20065;-87
2023/10/06 03:13:32;;;;;;;10.85;4.03;;;;;;;;;;6254824;22;20011;-87
2023/10/06 03:16:10;;;;;;;10.93;3.80;;;;;;;;;;6255168;22;20447;-87
2023/10/06 03:18:36;;;;;;;12.35;4.07;;;;;;;;;;6280559;22;20153;-87
2023/10/06 03:21:20;;;;;;;13.55;4.13;;;;;;;;;;6254643;22;20344;-87
2023/10/06 03:23:58;;;;;;;12.73;4.18;;;;;;;;;;6255104;22;20332;-87
2023/10/06 03:26:29;;;;;;;11.13;4.30;;;;;;;;;;6280705;22;20052;-87
2023/10/06 03:29:02;;;;;;;9.52;4.25;;;;;;;;;;6255295;22;20058;-87
2023/10/06 03:31:44;;;;;;;8.75;3.95;;;;;;;;;;6255781;22;20019;-87
2023/10/06 03:34:20;;;;;;;11.18;3.88;;;;;;;;;;6255150;22;20011;-88
2023/10/06 03:36:52;;;;;;;12.15;4.57;;;;;;;;;;6254944;22;20444;-87
2023/10/06 03:42:20;;;;;;;7.72;3.63;;;;;;;;;;6249401;22;20083;-87
2023/10/06 03:44:54;;;;;;;13.45;3.83;;;;;;;;;;6254715;22;20371;-87
2023/10/06 03:47:20;;;;;;;15.75;5.10;;;;;;;;;;6254631;22;20041;-87
2023/10/06 03:49:54;;;;;;;10.45;4.53;;;;;;;;;;6255522;22;20106;-87
2023/10/06 03:52:40;;;;;;;11.35;4.53;;;;;;;;;;6284851;22;20047;-87
2023/10/06 03:55:15;;;;;;;12.90;4.78;;;;;;;;;;6255687;22;20011;-86
2023/10/06 03:57:50;;;;;;;9.27;4.70;;;;;;;;;;6258049;22;20076;-87
2023/10/06 04:00:40;;;;;;;11.60;5.13;;;;;;;;;;6256919;22;20066;-86
2023/10/06 04:03:22;;;;;;;11.23;5.00;;;;;;;;;;6255120;22;20153;-87
2023/10/06 04:05:52;;;;;;;10.80;5.70;;;;;;;;;;6254850;22;20011;-87
2023/10/06 04:08:20;;;;;;;10.45;4.93;;;;;;;;;;6254860;22;20364;-88
2023/10/06 04:10:57;;;;;;;13.57;5.95;;;;;;;;;;6254426;22;20077;-87
2023/10/06 04:13:24;;;;;;;12.90;5.22;;;;;;;;;;6256059;22;20521;-87
2023/10/06 04:15:50;;;;;;;10.77;5.47;;;;;;;;;;6255928;22;20516;-87
2023/10/06 04:18:27;;;;;;;15.73;6.00;;;;;;;;;;6256273;22;20280;-87
2023/10/06 04:20:56;;;;;;;15.23;6.20;;;;;;;;;;6256278;22;20019;-87
2023/10/06 04:23:25;;;;;;;12.27;5.72;;;;;;;;;;6256475;22;20415;-87
2023/10/06 04:26:08;;;;;;;17.58;6.70;;;;;;;;;;6256002;22;20453;-87
2023/10/06 04:28:39;;;;;;;14.63;6.63;;;;;;;;;;6256948;22;20019;-87
2023/10/06 04:31:06;;;;;;;17.00;6.55;;;;;;;;;;6256113;22;20019;-87
2023/10/06 04:33:33;;;;;;;23.65;7.25;;;;;;;;;;6256582;22;20439;-87
2023/10/06 04:36:02;;;;;;;12.00;6.47;;;;;;;;;;6256067;22;20382;-87
2023/10/06 04:38:31;;;;;;;18.17;7.35;;;;;;;;;;6257107;22;20446;-87
2023/10/06 04:41:03;;;;;;;16.88;7.70;;;;;;;;;;6255312;22;20015;-86
2023/10/06 04:43:34;;;;;;;17.23;7.13;;;;;;;;;;6256426;22;20355;-87
2023/10/06 04:46:18;;;;;;;15.27;7.53;;;;;;;;;;6256451;22;20374;-87
2023/10/06 04:48:50;;;;;;;15.82;7.60;;;;;;;;;;6256651;22;20431;-87
2023/10/06 04:51:19;;;;;;;22.70;8.68;;;;;;;;;;6255106;22;20019;-87
2023/10/06 04:53:51;;;;;;;18.60;8.50;;;;;;;;;;6255885;22;20057;-86
2023/10/06 04:56:35;;;;;;;14.25;7.80;;;;;;;;;;6255107;22;20026;-87
2023/10/06 04:59:01;;;;;;;17.42;7.85;;;;;;;;;;6252624;22;20069;-86
2023/10/06 05:01:32;;;;;;;18.20;8.25;;;;;;;;;;6256940;22;20444;-87
2023/10/06 05:04:05;;;;;;;23.38;9.80;;;;;;;;;;6255497;22;20015;-87
2023/10/06 05:06:35;;;;;;;15.75;7.97;;;;;;;;;;6256300;22;20011;-87
2023/10/06 05:09:06;;;;;;;21.33;8.77;;;;;;;;;;6255752;22;20018;-87
2023/10/06 05:11:37;;;;;;;16.85;8.10;;;;;;;;;;6256087;22;20015;-87
2023/10/06 05:14:29;;;;;;;15.57;7.80;;;;;;;;;;6256679;22;20015;-87
2023/10/06 05:17:03;;;;;;;18.20;7.93;;;;;;;;;;6257826;22;20042;-86
2023/10/06 05:19:32;;;;;;;19.85;9.07;;;;;;;;;;6255814;22;20011;-87
2023/10/06 05:22:04;;;;;;;17.92;8.30;;;;;;;;;;6253199;22;20085;-87
2023/10/06 05:24:35;;;;;;;17.95;8.95;;;;;;;;;;6256621;22;20015;-86
2023/10/06 05:27:09;;;;;;;19.48;8.48;;;;;;;;;;6255325;22;20022;-87
2023/10/06 05:30:09;;;;;;;;;;;;;;;;;;;;;
2023/10/06 05:33:14;;;;;;;19.20;8.07;;;;;;;;;;6127234;23;20025;-87
2023/10/06 05:35:49;;;;;;;17.58;7.70;;;;;;;;;;6249377;22;20023;-87
2023/10/06 05:38:46;;;;;;;13.88;7.55;;;;;;;;;;6231260;22;20015;-87
2023/10/06 05:41:32;;;;;;;16.17;7.18;;;;;;;;;;6258651;22;20090;-87
2023/10/06 05:44:05;;;;;;;12.93;6.93;;;;;;;;;;6259946;22;20015;-87
2023/10/06 05:47:08;;;;;;;;;;;;;;;;;;;;;
2023/10/06 05:49:38;;;;;;;15.05;7.05;;;;;;;;;;6218649;23;20016;-87
2023/10/06 05:52:10;;;;;;;16.40;6.40;;;;;;;;;;6193657;23;20016;-88
2023/10/06 05:54:40;;;;;;;18.27;7.25;;;;;;;;;;6193922;23;20415;-86
2023/10/06 05:57:06;;;;;;;14.38;6.20;;;;;;;;;;6193535;23;20016;-87
2023/10/06 05:59:48;;;;;;;18.77;6.72;;;;;;;;;;6193403;23;20074;-87
2023/10/06 06:02:18;;;;;;;16.77;6.55;;;;;;;;;;6192620;23;20028;-85
2023/10/06 06:04:57;;;;;;;15.77;6.13;;;;;;;;;;6193844;23;20099;-86
2023/10/06 06:07:29;;;;;;;16.45;6.63;;;;;;;;;;6193159;23;20019;-86
2023/10/06 06:09:55;;;;;;;16.30;6.40;;;;;;;;;;6193652;23;20417;-86
2023/10/06 06:12:21;;;;;;;16.00;7.13;;;;;;;;;;6193882;23;20040;-86
2023/10/06 06:15:00;;;;;;;;;;;;;;;;;;;;;
2023/10/06 06:17:30;;;;;;;19.83;6.88;;;;;;;;;;6247974;22;20015;-86
2023/10/06 06:20:14;;;;;;;17.40;6.32;;;;;;;;;;6253582;22;20312;-86
2023/10/06 06:23:11;;;;;;;16.08;7.25;;;;;;;;;;6273598;22;20109;-86
2023/10/06 06:25:47;;;;;;;14.02;6.57;;;;;;;;;;6252398;22;20011;-86
2023/10/06 06:28:18;;;;;;;13.55;6.50;;;;;;;;;;6257216;22;20019;-86
2023/10/06 06:31:04;;;;;;;;;;;;;;;;;;6277270;22;20447;-86
2023/10/06 06:34:04;;;;;;;18.25;6.53;;;;;;;;;;6252875;22;19919;-85
2023/10/06 06:39:46;;;;;;;18.15;6.85;;;;;;;;;;6186677;23;20713;-86
2023/10/06 06:43:06;;;;;;;;;;;;;;;;;;;;;
2023/10/06 06:45:47;;;;;;;15.27;6.85;;;;;;;;;;6113532;23;20016;-86
2023/10/06 06:48:28;;;;;;;21.50;7.13;;;;;;;;;;6162396;23;20048;-86
2023/10/06 06:51:35;;;;;;;13.02;6.60;;;;;;;;;;6235128;22;20019;-85
2023/10/06 06:54:05;;;;;;;17.67;6.68;;;;;;;;;;6216907;23;20030;-87
2023/10/06 06:56:48;;;;;;;14.02;6.40;;;;;;;;;;6191681;23;20018;-87
2023/10/06 06:59:20;;;;;;;16.35;6.53;;;;;;;;;;6191133;23;20518;-86
2023/10/06 07:01:58;;;;;;;13.77;6.35;;;;;;;;;;6194833;23;20020;-87
2023/10/06 07:04:28;;;;;;;18.15;7.07;;;;;;;;;;6193898;23;20055;-86
2023/10/06 07:07:09;;;;;;;16.63;6.80;;;;;;;;;;6193214;23;20017;-88
2023/10/06 07:09:44;;;;;;;15.27;6.40;;;;;;;;;;6191752;23;20017;-88
2023/10/06 07:12:16;;;;;;;17.55;6.60;;;;;;;;;;6194228;23;20035;-89
2023/10/06 07:15:14;;;;;;;17.52;6.53;;;;;;;;;;6193769;23;20029;-87
2023/10/06 07:21:22;;;;;;;14.68;6.85;;;;;;;;;;6307732;22;20059;-87
2023/10/06 07:24:10;;;;;;;20.73;7.13;;;;;;;;;;6284172;22;20010;-86
2023/10/06 07:26:37;;;;;;;12.60;5.95;;;;;;;;;;6252032;22;20012;-85
2023/10/06 07:29:05;;;;;;;14.63;6.50;;;;;;;;;;6254109;22;20362;-87
2023/10/06 07:31:31;;;;;;;17.58;7.05;;;;;;;;;;6279763;22;20095;-85
2023/10/06 07:34:11;;;;;;;14.27;7.05;;;;;;;;;;6254150;22;20502;-85
2023/10/06 07:36:37;;;;;;;12.88;6.07;;;;;;;;;;6254362;22;20012;-85
2023/10/06 07:39:04;;;;;;;16.95;7.57;;;;;;;;;;6252921;22;20506;-85
2023/10/06 07:41:30;;;;;;;18.08;7.13;;;;;;;;;;6254132;22;20015;-87
2023/10/06 07:44:00;;;;;;;17.38;6.55;;;;;;;;;;6254646;22;20019;-85
2023/10/06 07:46:29;;;;;;;12.20;6.30;;;;;;;;;;6254475;22;20019;-85
2023/10/06 07:48:58;;;;;;;16.50;6.80;;;;;;;;;;6256144;22;20097;-86
2023/10/06 07:51:26;;;;;;;21.58;6.95;;;;;;;;;;6256316;22;20100;-86
2023/10/06 07:53:52;;;;;;;18.38;6.68;;;;;;;;;;6256009;22;20144;-86
2023/10/06 07:56:18;;;;;;;18.05;7.05;;;;;;;;;;6255752;22;20392;-86
2023/10/06 07:58:44;;;;;;;20.83;7.03;;;;;;;;;;6256248;22;20095;-86
2023/10/06 08:01:14;;;;;;;14.98;6.93;;;;;;;;;;6256899;22;20011;-86
2023/10/06 08:03:46;;;;;;;17.23;7.32;;;;;;;;;;6282818;22;20101;-86
2023/10/06 08:06:13;;;;;;;17.83;6.80;;;;;;;;;;6256295;22;20012;-86
2023/10/06 08:08:43;;;;;;;17.27;6.93;;;;;;;;;;6256651;22;20127;-85
2023/10/06 08:11:17;;;;;;;14.05;6.25;;;;;;;;;;6261134;22;20016;-86
2023/10/06 08:13:46;;;;;;;16.25;6.45;;;;;;;;;;6260905;22;20011;-86
2023/10/06 08:16:12;;;;;;;23.00;7.07;;;;;;;;;;6259874;22;20015;-86
2023/10/06 08:18:41;;;;;;;17.30;6.78;;;;;;;;;;6259630;22;20015;-86
2023/10/06 08:21:07;;;;;;;18.10;7.10;;;;;;;;;;6259182;22;20015;-85
2023/10/06 08:23:36;;;;;;;14.60;6.47;;;;;;;;;;6260169;22;20019;-86
2023/10/06 08:26:08;;;;;;;18.27;6.72;;;;;;;;;;6258685;22;20087;-86
2023/10/06 08:28:34;;;;;;;16.00;7.07;;;;;;;;;;6258674;22;20021;-85
2023/10/06 08:31:03;;;;;;;17.10;6.70;;;;;;;;;;6259797;22;20444;-85
2023/10/06 08:33:30;;;;;;;13.57;6.82;;;;;;;;;;6259294;22;20015;-85
2023/10/06 08:35:57;;;;;;;17.52;6.47;;;;;;;;;;6259608;22;20490;-85
2023/10/06 08:38:26;;;;;;;15.93;6.80;;;;;;;;;;6258282;22;20016;-84
2023/10/06 08:40:57;;;;;;;18.13;6.20;;;;;;;;;;6258089;22;20047;-85
2023/10/06 08:43:26;;;;;;;13.80;6.25;;;;;;;;;;6259450;22;20400;-85
2023/10/06 08:45:54;;;;;;;15.32;5.80;;;;;;;;;;6259631;22;20022;-85
2023/10/06 08:48:24;;;;;;;13.70;6.25;;;;;;;;;;6260998;22;20019;-86
2023/10/06 08:50:55;;;;;;;11.38;5.63;;;;;;;;;;6259790;22;20012;-86
2023/10/06 08:53:26;;;;;;;16.75;6.00;;;;;;;;;;6260908;22;20019;-88
2023/10/06 08:55:52;;;;;;;13.40;5.90;;;;;;;;;;6259404;22;20057;-86
2023/10/06 08:58:20;;;;;;;17.50;5.97;;;;;;;;;;6258092;22;20015;-85
2023/10/06 09:00:48;;;;;;;13.35;5.20;;;;;;;;;;6257587;22;20050;-84
2023/10/06 09:03:14;;;;;;;18.55;5.60;;;;;;;;;;6282487;22;20099;-86
2023/10/06 09:05:41;;;;;;;21.15;6.32;;;;;;;;;;6258218;22;20015;-84
2023/10/06 09:08:08;;;;;;;14.02;5.70;;;;;;;;;;6255547;22;20015;-85
2023/10/06 09:10:41;;;;;;;14.00;5.82;;;;;;;;;;6256271;22;20022;-85
2023/10/06 09:13:21;;;;;;;19.45;5.80;;;;;;;;;;6280820;22;20072;-86
2023/10/06 09:15:59;;;;;;;12.25;5.10;;;;;;;;;;6255276;22;20347;-86
2023/10/06 09:18:31;;;;;;;16.77;5.47;;;;;;;;;;6255949;22;20019;-89
2023/10/06 09:24:31;;;;;;;;;;;;;;;;;;;;;
2023/10/06 09:27:41;;;;;;;11.50;4.72;;;;;;;;;;6236539;23;20058;-85
2023/10/06 09:30:20;;;;;;;15.18;5.00;;;;;;;;;;6193071;23;20016;-85
2023/10/06 09:33:23;;;;;;;14.63;4.38;;;;;;;;;;6193091;23;20472;-85
2023/10/06 09:39:51;;;;;;;15.45;4.82;;;;;;;;;;6124245;23;20022;-86
2023/10/06 09:42:54;;;;;;;11.15;4.53;;;;;;;;;;6032679;23;20023;-86
2023/10/06 09:52:12;;;;;;;11.10;4.32;;;;;;;;;;6221178;22;20076;-89
2023/10/06 09:54:49;;;;;;;16.60;4.10;;;;;;;;;;6255901;22;20026;-87
2023/10/06 09:57:17;;;;;;;17.95;4.90;;;;;;;;;;6255352;22;20407;-87
2023/10/06 09:59:46;;;;;;;17.25;4.75;;;;;;;;;;6307870;22;20055;-87
2023/10/06 10:02:20;;;;;;;10.32;3.67;;;;;;;;;;6255895;22;20019;-89
2023/10/06 10:05:34;;;;;;;;;;;;;;;;;;;;;
2023/10/06 10:11:47;;;;;;;12.30;4.05;;;;;;;;;;6209270;23;20127;-88
2023/10/06 10:24:45;;;;;;;12.80;4.45;;;;;;;;;;6162681;23;20020;-87
2023/10/06 10:27:30;;;;;;;21.48;4.18;;;;;;;;;;6162238;23;20016;-87
2023/10/06 10:30:26;;;;;;;12.30;4.20;;;;;;;;;;6185257;23;20012;-86
2023/10/06 10:32:55;;;;;;;17.00;4.57;;;;;;;;;;6192820;23;20016;-86
2023/10/06 10:42:17;;;;;;;15.48;3.90;;;;;;;;;;6218176;23;20023;-88
2023/10/06 10:55:39;;;;;;;15.88;4.63;;;;;;;;;;6160662;23;20017;-89
2023/10/06 10:58:42;;;;;;;12.00;3.83;;;;;;;;;;6121926;23;20021;-90
2023/10/06 11:07:16;;;;;;;18.73;5.10;;;;;;;;;;6243071;22;20020;-89
2023/10/06 11:10:08;;;;;;;15.25;4.43;;;;;;;;;;6229881;22;20031;-89
2023/10/06 11:12:35;;;;;;;11.27;4.28;;;;;;;;;;6230451;22;20027;-90
2023/10/06 11:15:20;;;;;;;13.60;4.03;;;;;;;;;;6230273;22;20016;-90
2023/10/06 11:45:44;;;;;;;13.07;4.88;;;;;;;;;;6040831;23;20065;-89
2023/10/06 11:48:28;;;;;;;9.40;3.42;;;;;;;;;;6083883;23;20366;-88
2023/10/06 11:51:07;;;;;;;14.10;4.55;;;;;;;;;;6106651;23;20360;-86
2023/10/06 11:54:06;;;;;;;11.88;4.10;;;;;;;;;;6172704;22;20016;-87
2023/10/06 11:56:48;;;;;;;13.70;4.65;;;;;;;;;;6213650;22;20073;-86
2023/10/06 11:59:22;;;;;;;13.55;3.75;;;;;;;;;;6228223;22;20455;-86
2023/10/06 12:01:56;;;;;;;12.60;4.38;;;;;;;;;;6227455;22;20389;-86
2023/10/06 12:04:42;;;;;;;12.93;4.03;;;;;;;;;;6227428;22;20020;-86
2023/10/06 12:07:27;;;;;;;10.77;3.88;;;;;;;;;;6227964;22;20016;-86
2023/10/06 12:10:13;;;;;;;13.65;3.95;;;;;;;;;;6227477;22;20451;-86
2023/10/06 12:12:41;;;;;;;18.73;4.35;;;;;;;;;;6226335;22;20364;-86
2023/10/06 12:15:24;;;;;;;17.77;4.47;;;;;;;;;;6227605;22;20073;-86
2023/10/06 12:17:53;;;;;;;14.80;3.67;;;;;;;;;;6226686;22;20054;-86
2023/10/06 12:20:20;;;;;;;13.98;4.25;;;;;;;;;;6226087;22;20322;-86
2023/10/06 12:22:47;;;;;;;13.18;4.20;;;;;;;;;;6226314;22;20023;-86
2023/10/06 12:25:19;;;;;;;11.80;3.90;;;;;;;;;;6226273;22;20070;-86
2023/10/06 12:27:45;;;;;;;12.00;4.05;;;;;;;;;;6226103;22;20019;-87
2023/10/06 12:30:14;;;;;;;13.20;4.13;;;;;;;;;;6225700;22;20027;-87
2023/10/06 12:32:50;;;;;;;12.50;3.58;;;;;;;;;;6225403;22;20024;-86
2023/10/06 12:35:22;;;;;;;10.75;3.55;;;;;;;;;;6229491;22;20073;-89
2023/10/06 12:37:48;;;;;;;13.13;3.97;;;;;;;;;;6256995;22;20019;-88
2023/10/06 12:40:15;;;;;;;11.98;4.00;;;;;;;;;;6229404;22;20020;-87
2023/10/06 12:42:46;;;;;;;9.98;3.88;;;;;;;;;;6227019;22;20039;-88
2023/10/06 12:45:23;;;;;;;13.73;4.63;;;;;;;;;;6228653;22;20440;-90
2023/10/06 12:47:54;;;;;;;17.65;4.35;;;;;;;;;;6228182;22;20043;-88
2023/10/06 12:50:21;;;;;;;10.48;4.05;;;;;;;;;;6227317;22;20343;-88
2023/10/06 12:52:55;;;;;;;14.68;4.57;;;;;;;;;;6227759;22;20015;-89
2023/10/06 12:55:22;;;;;;;13.77;4.05;;;;;;;;;;6227617;22;20020;-88
2023/10/06 12:57:49;;;;;;;14.25;4.63;;;;;;;;;;6226287;22;20055;-89
2023/10/06 13:00:15;;;;;;;15.95;4.60;;;;;;;;;;6225069;22;20016;-88
2023/10/06 13:02:42;;;;;;;12.75;4.30;;;;;;;;;;6225594;22;20473;-89
2023/10/06 13:05:11;;;;;;;15.65;3.97;;;;;;;;;;6225537;22;20389;-88
2023/10/06 13:07:38;;;;;;;20.38;4.43;;;;;;;;;;6225552;22;20019;-88
2023/10/06 13:10:06;;;;;;;12.35;4.60;;;;;;;;;;6225462;22;20016;-87
2023/10/06 13:12:49;;;;;;;17.65;5.43;;;;;;;;;;6226072;22;20020;-88
2023/10/06 13:15:21;;;;;;;12.70;3.97;;;;;;;;;;6224990;22;20016;-87
2023/10/06 13:17:49;;;;;;;11.20;4.25;;;;;;;;;;6225548;22;20063;-89
2023/10/06 13:20:16;;;;;;;13.02;4.25;;;;;;;;;;6224987;22;20531;-89
2023/10/06 13:22:43;;;;;;;15.55;5.55;;;;;;;;;;6225423;22;20054;-88
2023/10/06 13:25:11;;;;;;;17.63;5.50;;;;;;;;;;6225400;22;20389;-88
2023/10/06 13:27:38;;;;;;;15.35;4.57;;;;;;;;;;6225854;22;20016;-88
2023/10/06 13:30:25;;;;;;;16.85;5.15;;;;;;;;;;6225095;22;20026;-88
2023/10/06 13:32:53;;;;;;;16.42;4.53;;;;;;;;;;6225063;22;20103;-88
2023/10/06 13:35:23;;;;;;;16.52;4.72;;;;;;;;;;6230317;22;20031;-88
2023/10/06 13:37:58;;;;;;;15.40;4.85;;;;;;;;;;6228970;22;20069;-90
2023/10/06 13:40:29;;;;;;;14.27;4.22;;;;;;;;;;6228235;22;20019;-88
2023/10/06 13:42:55;;;;;;;19.45;4.72;;;;;;;;;;6228927;22;20375;-88
2023/10/06 13:45:22;;;;;;;19.50;5.15;;;;;;;;;;6229100;22;20022;-89
2023/10/06 13:47:54;;;;;;;16.45;4.60;;;;;;;;;;6228631;22;20012;-89
2023/10/06 13:50:21;;;;;;;16.98;4.68;;;;;;;;;;6224808;22;20452;-89
2023/10/06 13:52:50;;;;;;;12.90;5.05;;;;;;;;;;6224887;22;20012;-89
2023/10/06 13:55:20;;;;;;;13.80;4.32;;;;;;;;;;6224983;22;20070;-87
2023/10/06 13:57:47;;;;;;;15.15;4.90;;;;;;;;;;6224987;22;20459;-89
2023/10/06 14:00:29;;;;;;;15.98;4.55;;;;;;;;;;6225095;22;20298;-88
2023/10/06 14:03:13;;;;;;;13.65;5.00;;;;;;;;;;6224852;22;20099;-87
2023/10/06 14:05:43;;;;;;;13.18;4.32;;;;;;;;;;6225465;22;20016;-88
2023/10/06 14:08:17;;;;;;;15.48;4.50;;;;;;;;;;6225756;22;20016;-88
2023/10/06 14:10:49;;;;;;;13.85;4.30;;;;;;;;;;6225803;22;20440;-88
2023/10/06 14:13:16;;;;;;;14.88;4.35;;;;;;;;;;6225018;22;20043;-88
2023/10/06 14:15:49;;;;;;;18.98;4.80;;;;;;;;;;6229166;22;20502;-89
2023/10/06 14:18:22;;;;;;;13.73;4.28;;;;;;;;;;6232316;22;20019;-89
2023/10/06 14:20:52;;;;;;;14.95;4.70;;;;;;;;;;6231930;22;20034;-89
2023/10/06 14:23:26;;;;;;;17.58;4.90;;;;;;;;;;6232554;22;20067;-89
2023/10/06 14:26:10;;;;;;;20.75;5.05;;;;;;;;;;6231486;22;20016;-90
2023/10/06 14:28:44;;;;;;;21.00;5.65;;;;;;;;;;6232157;22;20020;-89
2023/10/06 14:31:34;;;;;;;19.40;4.57;;;;;;;;;;6230175;22;20016;-89
2023/10/06 14:36:57;;;;;;;14.43;4.70;;;;;;;;;;6256745;22;20043;-89
2023/10/06 14:55:01;;;;;;;18.45;4.97;;;;;;;;;;6279690;22;20480;-91
2023/10/06 14:57:45;;;;;;;13.18;5.05;;;;;;;;;;6200259;22;20016;-90
2023/10/06 15:00:35;;;;;;;17.50;4.55;;;;;;;;;;6228480;22;20453;-90
2023/10/06 15:03:08;;;;;;;17.33;4.70;;;;;;;;;;6228614;22;20458;-90
2023/10/06 15:06:05;;;;;;;24.17;4.70;;;;;;;;;;6230013;22;20409;-90
2023/10/06 15:08:54;;;;;;;;;;;;;;;;;;;;;
2023/10/06 15:11:28;;;;;;;16.80;4.82;;;;;;;;;;6254045;22;20436;-90
2023/10/06 15:14:00;;;;;;;17.10;5.15;;;;;;;;;;6227652;22;20012;-90
2023/10/06 15:16:28;;;;;;;16.35;4.47;;;;;;;;;;6227051;22;20015;-91
2023/10/06 15:18:54;;;;;;;18.13;5.68;;;;;;;;;;6228789;22;20027;-90
2023/10/06 15:24:36;;;;;;;16.45;5.75;;;;;;;;;;6163066;23;20021;-91
2023/10/06 15:27:23;;;;;;;21.08;5.78;;;;;;;;;;6136718;23;20017;-90
2023/10/06 15:29:51;;;;;;;;;;;;;;;;;;6250346;22;20020;-90
2023/10/06 15:32:21;;;;;;;16.40;4.93;;;;;;;;;;6224451;22;19923;-88
2023/10/06 15:35:06;;;;;;;27.45;5.05;;;;;;;;;;6224808;22;20019;-88
2023/10/06 15:37:38;;;;;;;22.38;5.30;;;;;;;;;;6227989;22;20432;-87
2023/10/06 15:40:16;;;;;;;16.63;5.25;;;;;;;;;;6226583;22;20027;-88
2023/10/06 15:42:42;;;;;;;15.13;4.43;;;;;;;;;;6224446;22;20043;-87
2023/10/06 15:45:14;;;;;;;17.65;4.80;;;;;;;;;;6223641;22;20339;-87
2023/10/06 15:47:50;;;;;;;12.40;4.78;;;;;;;;;;6224140;22;20018;-87
2023/10/06 15:50:28;;;;;;;15.13;5.07;;;;;;;;;;6224026;22;20027;-87
2023/10/06 15:53:00;;;;;;;20.38;5.40;;;;;;;;;;6223361;22;20026;-88
2023/10/06 15:55:29;;;;;;;19.98;4.72;;;;;;;;;;6223334;22;20096;-88
2023/10/06 15:57:55;;;;;;;18.80;5.35;;;;;;;;;;6221307;22;20039;-87
2023/10/06 16:00:23;;;;;;;20.15;5.25;;;;;;;;;;6221034;22;20023;-87
2023/10/06 16:02:50;;;;;;;12.13;4.70;;;;;;;;;;6250054;22;20088;-86
2023/10/06 16:05:17;;;;;;;13.60;4.55;;;;;;;;;;6223933;22;20023;-87
2023/10/06 16:07:43;;;;;;;15.85;4.85;;;;;;;;;;6224643;22;20016;-86
2023/10/06 16:10:23;;;;;;;16.70;4.65;;;;;;;;;;6251333;22;20087;-89
2023/10/06 16:12:49;;;;;;;15.85;5.15;;;;;;;;;;6225932;22;20095;-87
2023/10/06 16:15:16;;;;;;;17.65;4.75;;;;;;;;;;6250928;22;20016;-89
2023/10/06 16:17:42;;;;;;;18.58;5.25;;;;;;;;;;6225222;22;20106;-86
2023/10/06 16:20:09;;;;;;;17.50;7.20;;;;;;;;;;6225464;22;20019;-86
2023/10/06 16:22:35;;;;;;;18.42;5.32;;;;;;;;;;6250492;22;20538;-86
2023/10/06 16:25:05;;;;;;;21.15;6.07;;;;;;;;;;6224857;22;20447;-86
2023/10/06 16:27:31;;;;;;;16.08;5.03;;;;;;;;;;6278146;22;20027;-86
2023/10/06 16:30:00;;;;;;;14.85;5.15;;;;;;;;;;6225342;22;20019;-86
2023/10/06 16:32:28;;;;;;;17.67;5.30;;;;;;;;;;6225949;22;20018;-87
2023/10/06 16:34:58;;;;;;;17.35;5.53;;;;;;;;;;6225170;22;20022;-86
2023/10/06 16:37:24;;;;;;;18.42;5.00;;;;;;;;;;6225548;22;20482;-86
2023/10/06 16:39:50;;;;;;;21.33;5.40;;;;;;;;;;6225295;22;20012;-86
2023/10/06 16:42:17;;;;;;;15.07;5.28;;;;;;;;;;6225206;22;20351;-86
2023/10/06 16:44:43;;;;;;;20.30;5.25;;;;;;;;;;6250264;22;20023;-86
2023/10/06 16:47:09;;;;;;;18.98;5.20;;;;;;;;;;6226300;22;20026;-86
2023/10/06 16:49:35;;;;;;;15.48;5.00;;;;;;;;;;6224725;22;20035;-86
2023/10/06 16:52:01;;;;;;;16.30;5.38;;;;;;;;;;6224024;22;20711;-86
2023/10/06 16:54:28;;;;;;;16.65;5.82;;;;;;;;;;6223086;22;20016;-86
2023/10/06 16:56:54;;;;;;;16.67;5.13;;;;;;;;;;6248945;22;20023;-86
2023/10/06 16:59:20;;;;;;;18.02;5.70;;;;;;;;;;6248612;22;20016;-85
2023/10/06 17:01:46;;;;;;;17.92;5.75;;;;;;;;;;6223183;22;20020;-86
2023/10/06 17:04:14;;;;;;;16.90;5.68;;;;;;;;;;6222791;22;20130;-86
2023/10/06 17:06:40;;;;;;;16.85;5.40;;;;;;;;;;6248321;22;20023;-86
2023/10/06 17:09:18;;;;;;;15.43;5.90;;;;;;;;;;6221936;22;20024;-85
2023/10/06 17:11:45;;;;;;;25.42;5.97;;;;;;;;;;6222866;22;20031;-87
2023/10/06 17:14:11;;;;;;;21.23;5.35;;;;;;;;;;6248385;22;20035;-86
2023/10/06 17:16:37;;;;;;;16.13;5.28;;;;;;;;;;6247872;22;20389;-86
2023/10/06 17:19:07;;;;;;;17.05;5.53;;;;;;;;;;6223387;22;20070;-85